Roper, Kansas
Current Conditions -  °F | °C
As of 4:52 PM on Monday 24 Nov 2014 (Local Time) from KCNU Reporting Station
Clear Clear  
Wind Chill: 40°   Ceiling: Unl
Heat Index: 45°   Visibility: 10mi
Dew Point: 22°   Wind: 10mph
Humidity: 40%   Direction: 300°WNW
Pressure: 29.95"   Gusts: NA
Location:  37.634°N, 95.6326°W
Report Text: KCNU 242252Z AUTO 30009KT 10SM CLR 07/M06 A2995 RMK AO2 SLP144 T00721056
Loading
Personal Weather Stations






























Interactive Weather Map New forecast layout! Learn more

10-Day Weather Forecast

Advertisements
Track Severe Weather on mobile